Terminal Aerodrome Forecast
Issued by NWS Austin/San Antonio, TX

Home | Current Version | Previous Version | Text Only | Print | Product List | Glossary On
Versions: 1 2 3 4 5 6 7 8 9 10 11 12 13 14 15 16
573
FTUS44 KEWX 161827 AAA
TAFDRT
TAF AMD
KDRT 161827Z 1618/1718 12006KT 6SM -RA BR OVC015
     FM170200 10005KT 4SM BR OVC007
     FM171100 30002KT 2SM BR OVC003
     FM171700 16003KT P6SM OVC007=

USA.gov is the U.S. government's official web portal to all federal, state and local government web resources and services.